aviador You're here:

KBKW Decoded Metar

BECKLEY in WV, USA
Report Time2017-04-25 19:51:00
UTC Time2017-04-25 20:12:33
Flight Rules mvfr MVFR
Wind020° at 06 kt
W.Decomp.*RWY 01: 5.8 kt HW 1.7 kt RCW
RWY 10: 1.7 kt HW 5.8 kt LCW
W.Rank020° ranks 28
Current wind is above 020° avg. (4.9)
Visibility9999 m
Phenomena:N/A
Clouds:Broken 019 Hf
Overcast 027 Hf
Expected CloudBase > 2,000 ft AGL from Temp-Dew spread
Ceiling1,900 ft
Temp17°C (ISA +7)
Dew Point12°C (73% RH)
AAT15.5°C
QNH1008 hPa
Density Alt3,691 ft
Elevation2,507 ft
Report Wrong Elevation
Raw Report
KBKW 251951Z AUTO 02006KT 10SM BKN019 OVC027 17/12 A2977=

Extra information for KBKW:More info

Metar Taf Metar & Taf Last 4 Metars F.Rules Stats Wind Profile Meteogram Temp Stats Airport Information Weather charts Add Link Nearby VenuesMetar ALERT Operation Metar Decoded Social comments

AIRNAV info for KBKW